Austin, Texas
Traffic Map
Current Weather Conditions
Austin, Texas
Few Clouds
Few Clouds
90°
Feels Like: 93°
Wind Chill: 90° Ceiling: Unl
Heat Index: 93° Visibility: 10mi
Dew Point: 67° Wind: 7mph
Humidity: 46% Direction: 140° (SE)
Pressure: 30.02in Gusts: 0mph
Raw Report DataKATT 021851Z AUTO 14006KT 10SM FEW044 32/19 A3002 RMK AO2 SLP152 T03220194
Traffic Incident Summary
Active as of:
Severity:
Category:
InformationThere was an issue retrieving the traffic information for this location. Please try a different location or try again shortly.
Advertisements
Track Severe Weather on mobile